createdAt,value
2018-11-28T07:48:46.774Z,21.35
2018-11-28T07:49:47.295Z,21.33
2018-11-28T07:50:47.600Z,21.40
2018-11-28T07:51:34.006Z,21.37
2018-11-28T07:52:35.081Z,21.43
2018-11-28T07:53:35.194Z,21.46
2018-11-28T07:54:35.201Z,21.42
2018-11-28T07:55:35.027Z,21.48
2018-11-28T07:56:34.970Z,21.45
2018-11-28T07:57:34.631Z,21.51
2018-11-28T07:58:34.583Z,21.40
2018-11-28T07:59:34.465Z,21.42
2018-11-28T08:00:34.757Z,21.54
2018-11-28T08:01:34.672Z,21.58
2018-11-28T08:02:34.211Z,21.55
2018-11-28T08:03:34.674Z,21.52
2018-11-28T08:04:34.071Z,21.54
2018-11-28T08:05:33.975Z,21.51
2018-11-28T08:06:33.872Z,21.57
2018-11-28T08:07:33.783Z,21.60
2018-11-28T08:08:33.734Z,21.55
2018-11-28T08:09:33.867Z,21.57
2018-11-28T08:10:33.630Z,21.57
2018-11-28T08:11:33.756Z,21.57
2018-11-28T08:12:33.552Z,21.67
2018-11-28T08:13:33.256Z,21.61
2018-11-28T08:14:33.355Z,21.70
2018-11-28T08:15:33.322Z,21.60
2018-11-28T08:16:32.919Z,21.66
2018-11-28T08:17:32.842Z,21.67
2018-11-28T08:18:34.395Z,21.69
2018-11-28T08:19:33.310Z,21.67
2018-11-28T08:20:33.226Z,21.70
2018-11-28T08:21:32.895Z,21.69
2018-11-28T08:22:32.552Z,21.75
2018-11-28T08:23:32.181Z,21.70
2018-11-28T08:24:32.412Z,21.73
2018-11-28T08:25:31.957Z,21.76
2018-11-28T08:26:32.098Z,21.85
2018-11-28T08:27:31.794Z,21.76
2018-11-28T08:28:33.485Z,21.77
2018-11-28T08:29:32.853Z,21.79
2018-11-28T08:30:31.431Z,21.76
2018-11-28T08:31:31.383Z,21.80
2018-11-28T08:32:31.802Z,21.76
2018-11-28T08:33:32.567Z,21.82
2018-11-28T08:34:31.214Z,21.83
2018-11-28T08:35:31.431Z,21.82
2018-11-28T08:36:30.993Z,21.92
2018-11-28T08:37:30.888Z,21.76
2018-11-28T08:38:30.549Z,21.91
2018-11-28T08:39:30.395Z,21.89
2018-11-28T08:40:30.573Z,21.88
2018-11-28T08:41:30.432Z,21.89
2018-11-28T08:42:30.071Z,21.91
2018-11-28T08:43:30.217Z,21.88
2018-11-28T08:44:29.850Z,21.80
2018-11-28T08:45:29.735Z,21.88
2018-11-28T08:46:29.604Z,21.83
2018-11-28T08:47:29.505Z,21.88
2018-11-28T08:48:29.387Z,21.83
2018-11-28T08:49:29.309Z,21.85
2018-11-28T08:50:29.461Z,21.85
